createdAt,value
2023-03-15T00:06:56.736Z,100.00
2023-03-15T00:16:59.048Z,100.00
2023-03-15T00:27:01.412Z,100.00
2023-03-15T00:37:06.738Z,100.00
2023-03-15T00:47:11.695Z,100.00
2023-03-15T00:57:14.064Z,100.00
2023-03-15T01:07:16.370Z,100.00
2023-03-15T01:17:18.663Z,100.00
2023-03-15T01:27:21.244Z,100.00
2023-03-15T01:37:24.881Z,100.00
2023-03-15T01:47:28.630Z,100.00
2023-03-15T01:57:39.347Z,100.00
2023-03-15T02:07:50.285Z,100.00
2023-03-15T02:17:53.041Z,100.00
2023-03-15T02:27:56.485Z,100.00
2023-03-15T02:38:00.073Z,100.00
2023-03-15T02:48:06.012Z,100.00
2023-03-15T02:58:08.571Z,100.00
2023-03-15T03:08:10.998Z,100.00
2023-03-15T03:18:13.554Z,100.00
2023-03-15T03:28:15.792Z,100.00
2023-03-15T03:38:18.175Z,100.00
2023-03-15T03:48:20.407Z,100.00
2023-03-15T03:58:23.219Z,100.00
2023-03-15T04:08:27.339Z,100.00
2023-03-15T04:18:30.011Z,100.00
2023-03-15T04:28:32.924Z,100.00
2023-03-15T04:38:35.868Z,100.00
2023-03-15T04:48:38.194Z,100.00
2023-03-15T04:58:40.493Z,100.00
2023-03-15T05:08:45.621Z,100.00
2023-03-15T05:18:48.038Z,100.00
2023-03-15T05:28:50.428Z,100.00
2023-03-15T05:38:52.667Z,100.00
2023-03-15T05:48:55.016Z,100.00
2023-03-15T05:58:57.406Z,100.00
2023-03-15T06:08:59.935Z,100.00
2023-03-15T06:19:02.536Z,100.00
2023-03-15T06:29:05.562Z,100.00
2023-03-15T06:39:08.704Z,100.00
2023-03-15T06:49:11.321Z,100.00
2023-03-15T06:59:13.858Z,100.00
2023-03-15T07:09:16.485Z,100.00
2023-03-15T07:19:19.284Z,100.00
2023-03-15T07:29:21.973Z,100.00
2023-03-15T07:39:25.568Z,100.00
2023-03-15T07:49:28.693Z,100.00
2023-03-15T07:59:31.641Z,100.00
2023-03-15T08:09:35.198Z,100.00
2023-03-15T08:19:37.890Z,100.00
2023-03-15T08:29:40.600Z,100.00
2023-03-15T08:39:44.169Z,100.00
2023-03-15T08:49:46.684Z,100.00
2023-03-15T08:59:50.071Z,100.00
2023-03-15T09:09:54.764Z,100.00
2023-03-15T09:19:57.375Z,97.65
2023-03-15T09:30:00.071Z,95.96
2023-03-15T09:40:02.748Z,77.06
2023-03-15T09:50:15.288Z,77.88
2023-03-15T10:00:24.137Z,78.71
2023-03-15T10:10:35.148Z,76.04
2023-03-15T10:20:44.458Z,79.09
2023-03-15T10:30:49.724Z,67.93
2023-03-15T10:40:55.303Z,63.54
2023-03-15T10:51:01.555Z,63.92
2023-03-15T11:01:10.193Z,57.17
2023-03-15T11:11:13.063Z,55.23
2023-03-15T11:21:18.007Z,55.20
2023-03-15T11:31:22.065Z,58.44
2023-03-15T11:41:35.934Z,60.60
2023-03-15T11:51:38.836Z,58.60
2023-03-15T12:02:09.196Z,61.02
2023-03-15T12:12:27.508Z,55.41
2023-03-15T12:22:34.903Z,56.25
2023-03-15T12:32:48.818Z,53.09
2023-03-15T12:42:53.002Z,48.93
2023-03-15T12:53:01.571Z,45.23
2023-03-15T13:03:22.640Z,50.08
2023-03-15T13:13:49.680Z,46.68
2023-03-15T13:23:56.800Z,46.99
2023-03-15T13:34:16.692Z,47.25
2023-03-15T13:44:24.371Z,46.41
2023-03-15T13:54:34.843Z,45.88
2023-03-15T14:04:38.777Z,42.75
2023-03-15T14:14:50.174Z,46.44
2023-03-15T14:24:53.709Z,40.31
2023-03-15T14:35:25.237Z,43.51
2023-03-15T14:45:28.076Z,46.88
2023-03-15T14:55:37.680Z,44.31
2023-03-15T15:05:42.292Z,46.35
2023-03-15T15:15:55.134Z,43.90
2023-03-15T15:26:05.163Z,40.72
2023-03-15T15:36:16.161Z,43.26
2023-03-15T15:46:19.109Z,41.97
2023-03-15T15:56:27.451Z,41.81
2023-03-15T16:06:31.008Z,43.38
2023-03-15T16:16:33.758Z,44.59
2023-03-15T16:26:39.455Z,43.32
2023-03-15T16:36:44.133Z,43.52
2023-03-15T16:46:47.561Z,46.86
2023-03-15T16:56:50.665Z,47.13
2023-03-15T17:06:53.366Z,51.01
2023-03-15T17:16:56.256Z,55.21
2023-03-15T17:26:59.363Z,58.60
2023-03-15T17:37:01.757Z,63.40
2023-03-15T17:47:06.288Z,73.19
2023-03-15T17:57:13.476Z,80.33
2023-03-15T18:07:16.132Z,88.00
2023-03-15T18:17:18.815Z,93.35
2023-03-15T18:27:21.645Z,99.22
2023-03-15T18:37:24.377Z,100.00
2023-03-15T18:47:27.048Z,100.00
2023-03-15T18:57:30.316Z,100.00
2023-03-15T19:07:33.636Z,100.00
2023-03-15T19:17:36.433Z,100.00
2023-03-15T19:27:39.039Z,100.00
2023-03-15T19:37:42.921Z,100.00
2023-03-15T19:47:45.726Z,100.00
2023-03-15T19:57:48.828Z,100.00
2023-03-15T20:07:52.404Z,100.00
2023-03-15T20:17:55.726Z,100.00
2023-03-15T20:27:58.730Z,100.00
2023-03-15T20:38:08.088Z,100.00
2023-03-15T20:48:11.708Z,100.00
2023-03-15T20:58:14.792Z,100.00
2023-03-15T21:08:17.997Z,100.00
2023-03-15T21:18:24.163Z,100.00
2023-03-15T21:28:27.138Z,100.00
2023-03-15T21:38:32.140Z,100.00
2023-03-15T21:48:35.672Z,100.00
2023-03-15T21:58:38.076Z,100.00
2023-03-15T22:08:41.393Z,100.00
2023-03-15T22:18:43.997Z,100.00
2023-03-15T22:28:46.521Z,100.00
2023-03-15T22:38:50.723Z,100.00
2023-03-15T22:48:54.003Z,100.00
2023-03-15T22:58:56.506Z,100.00
2023-03-15T23:08:59.137Z,100.00
2023-03-15T23:19:05.365Z,100.00
2023-03-15T23:29:11.096Z,100.00
2023-03-15T23:39:13.564Z,100.00
2023-03-15T23:49:15.883Z,100.00
2023-03-15T23:59:18.332Z,100.00
